createdAt,value
2022-10-14T00:02:05.642Z,13.55
2022-10-14T00:04:54.308Z,13.59
2022-10-14T00:07:44.457Z,13.60
2022-10-14T00:10:32.856Z,13.60
2022-10-14T00:13:21.316Z,13.30
2022-10-14T00:16:16.878Z,13.57
2022-10-14T00:19:06.559Z,13.61
2022-10-14T00:21:54.998Z,13.62
2022-10-14T00:24:44.795Z,13.62
2022-10-14T00:27:33.187Z,13.61
2022-10-14T00:30:21.837Z,13.55
2022-10-14T00:33:10.240Z,13.55
2022-10-14T00:36:00.156Z,13.62
2022-10-14T00:38:49.074Z,13.63
2022-10-14T00:41:39.200Z,13.68
2022-10-14T00:44:59.076Z,13.66
2022-10-14T00:47:48.357Z,13.63
2022-10-14T00:50:37.133Z,13.58
2022-10-14T00:53:25.599Z,13.57
2022-10-14T00:56:17.172Z,13.52
2022-10-14T00:59:07.599Z,13.52
2022-10-14T01:01:56.043Z,13.57
2022-10-14T01:04:46.472Z,13.63
2022-10-14T01:07:56.577Z,13.58
2022-10-14T01:10:49.512Z,13.63
2022-10-14T01:13:41.544Z,13.64
2022-10-14T01:16:38.692Z,13.64
2022-10-14T01:19:45.477Z,13.69
2022-10-14T01:22:36.653Z,13.71
2022-10-14T01:25:29.878Z,13.70
2022-10-14T01:28:24.713Z,13.68
2022-10-14T01:31:19.451Z,13.75
2022-10-14T01:34:11.054Z,13.75
2022-10-14T01:37:02.410Z,13.78
2022-10-14T01:39:55.232Z,13.76
2022-10-14T01:42:44.294Z,13.74
2022-10-14T01:45:35.620Z,13.70
2022-10-14T01:48:28.084Z,13.68
2022-10-14T01:51:19.883Z,13.63
2022-10-14T01:54:13.983Z,13.64
2022-10-14T01:57:05.262Z,13.69
2022-10-14T01:59:54.263Z,13.63
2022-10-14T02:02:43.047Z,13.42
2022-10-14T02:05:36.417Z,13.65
2022-10-14T02:08:30.956Z,13.65
2022-10-14T02:11:20.003Z,13.66
2022-10-14T02:14:16.279Z,13.63
2022-10-14T02:17:09.416Z,13.57
2022-10-14T02:20:01.826Z,13.60
2022-10-14T02:22:55.617Z,13.57
2022-10-14T02:25:46.424Z,13.60
2022-10-14T02:28:35.043Z,13.55
2022-10-14T02:31:24.342Z,13.51
2022-10-14T02:34:14.792Z,13.49
2022-10-14T02:37:04.113Z,13.48
2022-10-14T02:39:58.469Z,13.48
2022-10-14T02:42:46.992Z,13.38
2022-10-14T02:45:35.802Z,13.42
2022-10-14T02:48:24.209Z,13.42
2022-10-14T02:51:12.720Z,13.26
2022-10-14T02:54:02.360Z,13.32
2022-10-14T02:56:52.116Z,13.28
2022-10-14T02:59:40.592Z,13.29
2022-10-14T03:02:29.063Z,13.27
2022-10-14T03:05:17.626Z,13.22
2022-10-14T03:08:06.238Z,13.21
2022-10-14T03:10:54.689Z,13.20
2022-10-14T03:13:44.484Z,13.15
2022-10-14T03:16:32.863Z,13.07
2022-10-14T03:19:21.275Z,13.12
2022-10-14T03:22:09.705Z,13.17
2022-10-14T03:24:58.163Z,13.15
2022-10-14T03:27:46.567Z,12.97
2022-10-14T03:30:36.339Z,13.12
2022-10-14T03:33:26.416Z,13.12
2022-10-14T03:36:15.517Z,13.13
2022-10-14T03:39:04.199Z,13.16
2022-10-14T03:41:52.591Z,13.16
2022-10-14T03:44:41.264Z,13.13
2022-10-14T03:47:31.086Z,13.19
2022-10-14T03:50:19.880Z,13.16
2022-10-14T03:53:08.343Z,13.16
2022-10-14T03:55:56.772Z,13.17
2022-10-14T03:58:45.243Z,13.21
2022-10-14T04:01:33.706Z,13.12
2022-10-14T04:04:23.498Z,13.14
2022-10-14T04:07:11.994Z,13.15
2022-10-14T04:10:00.456Z,13.02
2022-10-14T04:12:48.887Z,13.17
2022-10-14T04:15:37.530Z,13.17
2022-10-14T04:18:25.958Z,13.08
2022-10-14T04:21:16.475Z,13.14
2022-10-14T04:24:08.420Z,13.20
2022-10-14T04:26:57.154Z,13.21
2022-10-14T04:29:45.618Z,13.16
2022-10-14T04:32:34.030Z,13.03
2022-10-14T04:35:22.483Z,13.07
2022-10-14T04:38:12.327Z,13.06
2022-10-14T04:41:00.883Z,13.01
2022-10-14T04:43:49.346Z,13.03
2022-10-14T04:46:37.789Z,12.98
2022-10-14T04:49:26.209Z,12.92
2022-10-14T04:52:14.667Z,12.93
2022-10-14T04:55:04.752Z,12.79
2022-10-14T04:57:53.287Z,12.74
2022-10-14T05:00:41.736Z,12.67
2022-10-14T05:03:30.157Z,12.65
2022-10-14T05:06:18.665Z,12.41
2022-10-14T05:09:07.542Z,12.66
2022-10-14T05:11:57.328Z,12.60
2022-10-14T05:14:46.540Z,12.54
2022-10-14T05:17:36.323Z,12.47
2022-10-14T05:20:24.795Z,12.49
2022-10-14T05:23:13.212Z,12.39
2022-10-14T05:26:01.635Z,12.45
2022-10-14T05:28:52.534Z,12.46
2022-10-14T05:31:41.172Z,12.44
2022-10-14T05:34:29.601Z,12.47
2022-10-14T05:37:18.054Z,12.56
2022-10-14T05:40:07.714Z,12.57
2022-10-14T05:42:56.153Z,12.61
2022-10-14T05:45:45.944Z,12.57
2022-10-14T05:48:34.420Z,12.68
2022-10-14T05:51:23.199Z,12.71
2022-10-14T05:54:12.252Z,12.61
2022-10-14T05:57:00.687Z,12.71
2022-10-14T05:59:49.149Z,12.68
2022-10-14T06:02:38.944Z,12.66
2022-10-14T06:05:27.389Z,12.60
2022-10-14T06:08:16.465Z,12.69
2022-10-14T06:11:05.483Z,12.73
2022-10-14T06:13:54.116Z,12.78
2022-10-14T06:16:42.559Z,12.81
2022-10-14T06:19:33.437Z,12.72
2022-10-14T06:22:22.288Z,12.80
2022-10-14T06:25:10.926Z,12.80
2022-10-14T06:28:03.185Z,12.83
2022-10-14T06:30:51.623Z,12.81
2022-10-14T06:33:40.162Z,12.80
2022-10-14T06:36:29.939Z,12.89
2022-10-14T06:39:18.763Z,12.93
2022-10-14T06:42:10.791Z,12.96
2022-10-14T06:45:09.899Z,13.05
2022-10-14T06:47:58.422Z,13.09
2022-10-14T06:50:46.860Z,13.10
2022-10-14T06:53:36.757Z,13.15
2022-10-14T06:56:25.207Z,13.15
2022-10-14T06:59:13.737Z,13.22
2022-10-14T07:02:02.272Z,13.33
2022-10-14T07:04:50.744Z,13.48
2022-10-14T07:07:39.258Z,13.39
2022-10-14T07:10:29.110Z,13.65
2022-10-14T07:13:17.556Z,13.71
2022-10-14T07:16:06.620Z,13.70
2022-10-14T07:18:55.187Z,13.76
2022-10-14T07:21:45.270Z,13.83
2022-10-14T07:24:33.787Z,13.90
2022-10-14T07:27:23.901Z,13.81
2022-10-14T07:30:15.303Z,14.08
2022-10-14T07:33:06.023Z,14.03
2022-10-14T07:35:54.545Z,14.03
2022-10-14T07:38:43.536Z,14.06
2022-10-14T07:41:32.328Z,13.99
2022-10-14T07:44:24.933Z,14.08
2022-10-14T07:47:15.823Z,14.13
2022-10-14T07:50:05.017Z,14.14
2022-10-14T07:52:56.610Z,14.21
2022-10-14T07:55:52.074Z,14.19
2022-10-14T07:58:44.382Z,14.19
2022-10-14T08:01:34.940Z,14.40
2022-10-14T08:04:25.764Z,14.47
2022-10-14T08:07:15.455Z,14.48
2022-10-14T08:10:04.772Z,14.51
2022-10-14T08:12:53.287Z,14.59
2022-10-14T08:15:43.246Z,14.58
2022-10-14T08:18:33.049Z,14.76
2022-10-14T08:21:21.985Z,14.49
2022-10-14T08:24:11.099Z,14.88
2022-10-14T08:27:00.993Z,14.94
2022-10-14T08:29:49.432Z,15.05
2022-10-14T08:32:38.228Z,15.15
2022-10-14T08:35:28.056Z,15.23
2022-10-14T08:38:16.534Z,15.30
2022-10-14T08:41:11.294Z,15.36
2022-10-14T08:44:10.241Z,15.41
2022-10-14T08:47:00.271Z,15.45
2022-10-14T08:49:55.572Z,15.50
2022-10-14T08:52:49.282Z,15.58
2022-10-14T08:55:40.007Z,15.71
2022-10-14T08:58:32.706Z,15.73
2022-10-14T09:01:24.409Z,15.74
2022-10-14T09:04:15.275Z,15.82
2022-10-14T09:07:04.402Z,15.86
2022-10-14T09:09:56.168Z,15.88
2022-10-14T09:12:44.709Z,15.96
2022-10-14T09:15:36.144Z,15.98
2022-10-14T09:18:30.015Z,15.98
2022-10-14T09:21:47.821Z,16.01
2022-10-14T09:24:37.943Z,16.10
2022-10-14T09:27:29.570Z,16.22
2022-10-14T09:30:18.625Z,16.23
2022-10-14T09:33:07.784Z,16.18
2022-10-14T09:38:48.417Z,16.37
2022-10-14T09:41:37.008Z,16.58
2022-10-14T09:44:26.940Z,16.59
2022-10-14T09:47:18.857Z,16.75
2022-10-14T09:50:10.075Z,16.81
2022-10-14T09:53:02.464Z,16.97
2022-10-14T09:55:53.598Z,17.07
2022-10-14T09:58:44.589Z,17.22
2022-10-14T10:01:40.369Z,17.04
2022-10-14T10:04:36.175Z,17.07
2022-10-14T10:07:32.516Z,17.15
2022-10-14T10:10:22.626Z,17.17
2022-10-14T10:13:35.877Z,17.12
2022-10-14T10:16:26.987Z,17.10
2022-10-14T10:19:32.964Z,17.14
2022-10-14T10:22:26.380Z,17.12
2022-10-14T10:25:27.903Z,17.11
2022-10-14T10:28:22.916Z,17.19
2022-10-14T10:31:21.130Z,17.15
2022-10-14T10:34:29.027Z,17.12
2022-10-14T10:37:27.289Z,17.23
2022-10-14T10:40:32.425Z,17.15
2022-10-14T10:43:59.802Z,17.06
2022-10-14T10:47:00.880Z,16.90
2022-10-14T10:49:58.706Z,16.82
2022-10-14T10:53:01.291Z,16.67
2022-10-14T10:55:56.419Z,16.59
2022-10-14T10:58:56.520Z,16.31
2022-10-14T11:01:51.526Z,16.52
2022-10-14T11:04:47.050Z,16.54
2022-10-14T11:08:05.677Z,16.52
2022-10-14T11:11:30.401Z,16.47
2022-10-14T11:14:32.686Z,16.59
2022-10-14T11:17:25.970Z,16.50
2022-10-14T11:20:24.258Z,16.46
2022-10-14T11:23:39.362Z,16.42
2022-10-14T11:26:39.502Z,16.63
2022-10-14T11:29:39.632Z,16.81
2022-10-14T11:32:31.656Z,16.89
2022-10-14T11:35:27.045Z,17.06
2022-10-14T11:38:27.787Z,17.16
2022-10-14T11:41:26.277Z,17.18
2022-10-14T11:44:21.177Z,17.25
2022-10-14T11:47:12.583Z,17.25
2022-10-14T11:50:03.276Z,17.39
2022-10-14T11:52:58.322Z,17.31
2022-10-14T11:55:50.460Z,17.29
2022-10-14T11:58:39.937Z,17.25
2022-10-14T12:01:35.714Z,17.23
2022-10-14T12:04:29.871Z,17.34
2022-10-14T12:07:22.693Z,17.44
2022-10-14T12:10:20.606Z,17.56
2022-10-14T12:13:12.143Z,17.67
2022-10-14T12:16:02.077Z,17.58
2022-10-14T12:18:55.535Z,17.27
2022-10-14T12:21:49.878Z,17.52
2022-10-14T12:24:42.649Z,17.40
2022-10-14T12:27:31.900Z,17.40
2022-10-14T12:30:33.869Z,17.18
2022-10-14T12:33:23.195Z,17.38
2022-10-14T12:36:31.871Z,17.32
2022-10-14T12:39:31.883Z,17.37
2022-10-14T12:42:21.736Z,17.07
2022-10-14T12:45:16.447Z,17.43
2022-10-14T12:48:08.777Z,17.39
2022-10-14T12:51:06.818Z,17.41
2022-10-14T12:54:07.186Z,17.40
2022-10-14T12:56:57.574Z,17.42
2022-10-14T12:59:49.968Z,17.47
2022-10-14T13:02:39.735Z,17.48
2022-10-14T13:05:32.944Z,17.53
2022-10-14T13:08:28.674Z,17.57
2022-10-14T13:11:28.957Z,17.61
2022-10-14T13:14:23.172Z,17.65
2022-10-14T13:17:30.068Z,17.62
2022-10-14T13:20:52.644Z,17.62
2022-10-14T13:23:43.376Z,17.53
2022-10-14T13:26:39.737Z,17.50
2022-10-14T13:29:33.340Z,17.32
2022-10-14T13:32:31.194Z,17.48
2022-10-14T13:35:25.951Z,17.27
2022-10-14T13:38:16.532Z,17.37
2022-10-14T13:41:06.201Z,17.46
2022-10-14T13:43:57.273Z,17.42
2022-10-14T13:46:46.847Z,17.44
2022-10-14T13:49:38.227Z,17.45
2022-10-14T13:52:27.419Z,17.38
2022-10-14T13:55:18.468Z,17.30
2022-10-14T13:58:13.788Z,17.16
2022-10-14T14:01:06.705Z,16.99
2022-10-14T14:03:57.698Z,17.14
2022-10-14T14:07:03.412Z,16.98
2022-10-14T14:09:59.628Z,16.97
2022-10-14T14:12:48.574Z,16.70
2022-10-14T14:15:37.958Z,16.68
2022-10-14T14:18:49.484Z,16.67
2022-10-14T14:21:45.375Z,16.77
2022-10-14T14:24:35.208Z,16.74
2022-10-14T14:27:26.695Z,16.77
2022-10-14T14:30:22.652Z,16.79
2022-10-14T14:33:13.097Z,16.79
2022-10-14T14:36:05.290Z,16.78
2022-10-14T14:38:56.140Z,16.75
2022-10-14T14:41:51.061Z,16.77
2022-10-14T14:44:43.052Z,16.80
2022-10-14T14:47:31.970Z,16.85
2022-10-14T14:50:30.607Z,16.85
2022-10-14T14:53:23.817Z,16.85
2022-10-14T14:56:15.189Z,16.92
2022-10-14T14:59:07.745Z,16.92
2022-10-14T15:01:57.448Z,16.98
2022-10-14T15:04:47.979Z,16.75
2022-10-14T15:07:37.104Z,17.00
2022-10-14T15:10:28.603Z,17.02
2022-10-14T15:13:33.823Z,16.98
2022-10-14T15:16:41.393Z,16.94
2022-10-14T15:19:35.664Z,16.98
2022-10-14T15:22:33.344Z,16.95
2022-10-14T15:25:28.988Z,16.98
2022-10-14T15:28:30.554Z,17.00
2022-10-14T15:31:19.140Z,16.99
2022-10-14T15:34:16.277Z,16.92
2022-10-14T15:37:04.753Z,16.94
2022-10-14T15:40:03.313Z,16.75
2022-10-14T15:42:53.375Z,16.87
2022-10-14T15:45:43.113Z,16.85
2022-10-14T15:48:32.156Z,16.77
2022-10-14T15:51:23.316Z,16.85
2022-10-14T15:54:12.389Z,16.83
2022-10-14T15:57:01.097Z,16.92
2022-10-14T15:59:51.986Z,16.84
2022-10-14T16:02:43.539Z,16.92
2022-10-14T16:05:32.139Z,17.02
2022-10-14T16:08:20.576Z,16.97
2022-10-14T16:11:23.801Z,16.98
2022-10-14T16:14:13.627Z,16.93
2022-10-14T16:17:03.878Z,16.80
2022-10-14T16:19:52.492Z,16.72
2022-10-14T16:22:40.889Z,16.69
2022-10-14T16:25:33.607Z,16.53
2022-10-14T16:28:22.302Z,16.64
2022-10-14T16:31:11.658Z,16.38
2022-10-14T16:34:01.837Z,16.61
2022-10-14T16:36:51.436Z,16.76
2022-10-14T16:39:40.716Z,16.70
2022-10-14T16:42:29.732Z,16.72
2022-10-14T16:45:18.886Z,16.66
2022-10-14T16:48:07.439Z,16.68
2022-10-14T16:50:57.422Z,16.62
2022-10-14T16:53:48.941Z,16.60
2022-10-14T16:56:56.802Z,16.52
2022-10-14T16:59:45.409Z,16.39
2022-10-14T17:02:33.937Z,16.46
2022-10-14T17:05:22.441Z,16.43
2022-10-14T17:08:12.264Z,16.39
2022-10-14T17:11:00.747Z,16.40
2022-10-14T17:13:52.633Z,16.35
2022-10-14T17:16:41.379Z,16.27
2022-10-14T17:19:29.997Z,16.23
2022-10-14T17:22:20.895Z,16.20
2022-10-14T17:25:11.213Z,16.18
2022-10-14T17:27:59.754Z,16.14
2022-10-14T17:30:48.315Z,16.11
2022-10-14T17:33:37.035Z,15.97
2022-10-14T17:36:28.093Z,16.11
2022-10-14T17:39:24.366Z,16.07
2022-10-14T17:42:19.328Z,16.05
2022-10-14T17:45:09.681Z,15.78
2022-10-14T17:47:58.677Z,15.89
2022-10-14T17:50:48.739Z,15.95
2022-10-14T17:53:37.497Z,15.79
2022-10-14T17:56:27.479Z,15.93
2022-10-14T17:59:17.403Z,15.94
2022-10-14T18:02:09.840Z,15.88
2022-10-14T18:04:58.347Z,15.88
2022-10-14T18:07:46.965Z,15.03
2022-10-14T18:10:36.654Z,15.86
2022-10-14T18:13:25.325Z,15.84
2022-10-14T18:16:15.721Z,15.84
2022-10-14T18:19:06.767Z,15.81
2022-10-14T18:21:55.241Z,15.79
2022-10-14T18:24:43.983Z,15.77
2022-10-14T18:27:32.387Z,15.70
2022-10-14T18:30:20.850Z,15.73
2022-10-14T18:33:10.715Z,15.69
2022-10-14T18:35:59.291Z,15.68
2022-10-14T18:38:51.016Z,15.67
2022-10-14T18:41:39.643Z,15.68
2022-10-14T18:44:28.094Z,15.67
2022-10-14T18:47:16.652Z,15.65
2022-10-14T18:50:07.023Z,15.62
2022-10-14T18:52:56.313Z,15.57
2022-10-14T18:55:44.818Z,15.39
2022-10-14T18:58:33.248Z,15.54
2022-10-14T19:01:22.748Z,15.50
2022-10-14T19:04:13.735Z,15.23
2022-10-14T19:07:04.159Z,15.46
2022-10-14T19:09:54.196Z,15.47
2022-10-14T19:12:45.554Z,15.38
2022-10-14T19:15:44.639Z,15.40
2022-10-14T19:18:34.556Z,15.40
2022-10-14T19:21:26.459Z,15.24
2022-10-14T19:24:16.608Z,15.26
2022-10-14T19:27:05.051Z,15.38
2022-10-14T19:29:53.500Z,15.25
2022-10-14T19:32:41.911Z,15.21
2022-10-14T19:35:30.344Z,15.24
2022-10-14T19:38:18.889Z,15.20
2022-10-14T19:41:09.347Z,15.19
2022-10-14T19:43:59.202Z,15.13
2022-10-14T19:46:48.274Z,15.20
2022-10-14T19:49:36.843Z,15.10
2022-10-14T19:52:25.397Z,15.08
2022-10-14T19:55:13.828Z,15.05
2022-10-14T19:58:04.591Z,15.01
2022-10-14T20:00:53.148Z,15.04
2022-10-14T20:03:42.087Z,14.98
2022-10-14T20:06:33.224Z,14.90
2022-10-14T20:09:21.736Z,14.86
2022-10-14T20:12:10.372Z,14.93
2022-10-14T20:15:00.161Z,14.92
2022-10-14T20:17:48.678Z,14.94
2022-10-14T20:20:40.043Z,14.87
2022-10-14T20:23:28.617Z,14.90
2022-10-14T20:26:19.626Z,14.97
2022-10-14T20:29:08.163Z,14.94
2022-10-14T20:31:58.152Z,14.89
2022-10-14T20:34:46.840Z,14.97
2022-10-14T20:37:35.287Z,14.96
2022-10-14T20:40:23.739Z,14.96
2022-10-14T20:43:12.321Z,14.93
2022-10-14T20:46:00.784Z,14.91
2022-10-14T20:48:54.326Z,14.96
2022-10-14T20:51:42.777Z,14.93
2022-10-14T20:54:31.234Z,14.90
2022-10-14T20:57:19.840Z,14.91
2022-10-14T21:00:09.864Z,14.90
2022-10-14T21:02:58.456Z,14.88
2022-10-14T21:05:48.255Z,14.85
2022-10-14T21:08:36.816Z,14.83
2022-10-14T21:11:25.948Z,14.66
2022-10-14T21:14:14.415Z,14.81
2022-10-14T21:17:02.886Z,14.80
2022-10-14T21:19:51.311Z,14.81
2022-10-14T21:22:41.110Z,14.82
2022-10-14T21:25:29.580Z,14.82
2022-10-14T21:28:18.113Z,14.80
2022-10-14T21:31:07.524Z,14.85
2022-10-14T21:34:01.194Z,14.83
2022-10-14T21:36:52.809Z,14.79
2022-10-14T21:39:42.615Z,14.80
2022-10-14T21:42:31.039Z,14.73
2022-10-14T21:45:19.465Z,14.82
2022-10-14T21:48:07.893Z,14.90
2022-10-14T21:51:02.972Z,14.90
2022-10-14T21:53:51.486Z,14.90
2022-10-14T21:56:41.310Z,14.85
2022-10-14T21:59:29.736Z,14.90
2022-10-14T22:02:18.489Z,14.89
2022-10-14T22:05:07.171Z,14.85
2022-10-14T22:07:55.615Z,14.93
2022-10-14T22:10:44.999Z,14.90
2022-10-14T22:13:35.196Z,14.90
2022-10-14T22:16:24.088Z,14.92
2022-10-14T22:19:12.840Z,14.89
2022-10-14T22:22:01.316Z,14.72
2022-10-14T22:24:49.991Z,14.89
2022-10-14T22:27:38.420Z,14.87
2022-10-14T22:30:28.570Z,14.80
2022-10-14T22:33:17.040Z,14.87
2022-10-14T22:36:09.974Z,14.86
2022-10-14T22:38:59.773Z,14.87
2022-10-14T22:41:48.244Z,14.77
2022-10-14T22:44:36.712Z,14.85
2022-10-14T22:47:26.656Z,14.91
2022-10-14T22:50:15.155Z,14.87
2022-10-14T22:53:03.608Z,14.85
2022-10-14T22:55:52.590Z,14.85
2022-10-14T22:58:40.988Z,14.87
2022-10-14T23:01:30.106Z,14.82
2022-10-14T23:04:20.235Z,14.85
2022-10-14T23:07:08.746Z,14.89
2022-10-14T23:09:57.146Z,14.90
2022-10-14T23:12:45.566Z,14.87
2022-10-14T23:15:34.643Z,14.97
2022-10-14T23:18:23.212Z,14.92
2022-10-14T23:21:15.189Z,14.04
2022-10-14T23:24:05.381Z,14.93
2022-10-14T23:26:53.823Z,14.93
2022-10-14T23:29:42.221Z,14.91
2022-10-14T23:32:30.616Z,15.06
2022-10-14T23:35:19.050Z,15.11
2022-10-14T23:38:11.916Z,15.17
2022-10-14T23:41:02.677Z,15.27
2022-10-14T23:43:52.263Z,15.35
2022-10-14T23:46:40.683Z,15.43
2022-10-14T23:49:29.055Z,15.47
2022-10-14T23:52:17.536Z,15.57
2022-10-14T23:55:08.180Z,15.65
2022-10-14T23:57:56.615Z,15.67
